Time;durP1;ratioP1;P1;durP2;ratioP2;P2;SDS_P1;SDS_P2;PMS_P1;PMS_P2;Temp;Humidity;BMP_temperature;BMP_pressure;BME280_temperature;BME280_humidity;BME280_pressure;Samples;Min_cycle;Max_cycle;Signal;HPM_P1;HPM_P2
2021/10/25 00:01:28;;;;;;;0.20;0.20;;;;;;;;;;5043657;28;20551;-87
2021/10/25 00:03:54;;;;;;;0.55;0.55;;;;;;;;;;5043783;28;20044;-87
2021/10/25 00:06:21;;;;;;;0.00;0.00;;;;;;;;;;5043997;28;20041;-86
2021/10/25 00:08:47;;;;;;;0.10;0.10;;;;;;;;;;5042546;28;20036;-85
2021/10/25 00:11:13;;;;;;;0.10;0.10;;;;;;;;;;5041766;28;20029;-86
2021/10/25 00:13:40;;;;;;;8.02;1.13;;;;;;;;;;5041887;28;20167;-86
2021/10/25 00:16:06;;;;;;;2.70;1.23;;;;;;;;;;5040909;28;20036;-87
2021/10/25 00:18:32;;;;;;;0.40;0.40;;;;;;;;;;5044006;28;20029;-86
2021/10/25 00:20:58;;;;;;;0.10;0.10;;;;;;;;;;5040962;28;20025;-87
2021/10/25 00:23:24;;;;;;;0.40;0.40;;;;;;;;;;5046633;28;20284;-90
2021/10/25 00:25:50;;;;;;;0.00;0.00;;;;;;;;;;5042514;28;20043;-87
2021/10/25 00:28:16;;;;;;;1.80;1.13;;;;;;;;;;5042563;28;20025;-88
2021/10/25 00:30:42;;;;;;;0.90;0.60;;;;;;;;;;5044018;28;20047;-87
2021/10/25 00:33:09;;;;;;;0.63;0.57;;;;;;;;;;5059911;28;20036;-88
2021/10/25 00:35:35;;;;;;;2.97;2.00;;;;;;;;;;5044062;28;20500;-89
2021/10/25 00:38:01;;;;;;;0.90;0.85;;;;;;;;;;5043498;28;20041;-87
2021/10/25 00:40:27;;;;;;;0.83;0.67;;;;;;;;;;5042571;28;20868;-87
2021/10/25 00:42:54;;;;;;;0.30;0.30;;;;;;;;;;5041481;28;20116;-87
2021/10/25 00:45:20;;;;;;;0.63;0.63;;;;;;;;;;5042619;28;20045;-88
2021/10/25 00:47:46;;;;;;;0.43;0.43;;;;;;;;;;5042139;28;20508;-88
2021/10/25 00:50:12;;;;;;;1.20;0.57;;;;;;;;;;5042751;28;20065;-87
2021/10/25 00:52:38;;;;;;;0.35;0.35;;;;;;;;;;5041675;28;20946;-88
2021/10/25 00:55:08;;;;;;;0.10;0.10;;;;;;;;;;5040245;28;20804;-89
2021/10/25 00:57:34;;;;;;;0.10;0.10;;;;;;;;;;5042315;28;20083;-87
2021/10/25 01:00:02;;;;;;;1.98;0.73;;;;;;;;;;5042508;28;20040;-86
2021/10/25 01:02:28;;;;;;;0.17;0.17;;;;;;;;;;5039296;28;20117;-86
2021/10/25 01:04:55;;;;;;;0.68;0.68;;;;;;;;;;5039450;28;20472;-86
2021/10/25 01:07:21;;;;;;;0.73;0.73;;;;;;;;;;5040406;28;20755;-86
2021/10/25 01:09:47;;;;;;;0.35;0.35;;;;;;;;;;5040530;28;20040;-87
2021/10/25 01:12:14;;;;;;;0.55;0.55;;;;;;;;;;5042826;28;20083;-86
2021/10/25 01:14:40;;;;;;;0.35;0.35;;;;;;;;;;5040124;28;20044;-84
2021/10/25 01:17:06;;;;;;;0.22;0.22;;;;;;;;;;5040810;28;20025;-83
2021/10/25 01:19:32;;;;;;;0.10;0.10;;;;;;;;;;5041166;28;20151;-83
2021/10/25 01:21:58;;;;;;;0.10;0.10;;;;;;;;;;5040056;28;20033;-83
2021/10/25 01:24:24;;;;;;;0.60;0.60;;;;;;;;;;5043022;28;20036;-86
2021/10/25 01:26:50;;;;;;;1.50;0.97;;;;;;;;;;5041399;28;20945;-88
2021/10/25 01:29:20;;;;;;;0.80;0.80;;;;;;;;;;5042234;28;20143;-87
2021/10/25 01:31:46;;;;;;;0.30;0.30;;;;;;;;;;5042195;28;20525;-88
2021/10/25 01:34:13;;;;;;;0.55;0.55;;;;;;;;;;5041461;28;20038;-88
2021/10/25 01:36:40;;;;;;;0.08;0.08;;;;;;;;;;5041179;28;20025;-87
2021/10/25 01:39:06;;;;;;;;;;;;;;;;;;5057641;28;20561;-88
2021/10/25 01:41:32;;;;;;;0.52;0.52;;;;;;;;;;5040629;28;20023;-88
2021/10/25 01:43:59;;;;;;;1.07;0.50;;;;;;;;;;5041154;28;20048;-87
2021/10/25 01:46:25;;;;;;;0.20;0.20;;;;;;;;;;5042415;28;20055;-88
2021/10/25 01:48:51;;;;;;;1.45;0.65;;;;;;;;;;5041055;28;20040;-88
2021/10/25 01:51:18;;;;;;;0.20;0.20;;;;;;;;;;5038959;28;20040;-89
2021/10/25 01:53:45;;;;;;;0.63;0.63;;;;;;;;;;5042953;28;20475;-89
2021/10/25 01:56:12;;;;;;;0.38;0.38;;;;;;;;;;5042257;28;20033;-89
2021/10/25 01:58:38;;;;;;;0.88;0.45;;;;;;;;;;5044033;28;20593;-89
2021/10/25 02:01:04;;;;;;;0.23;0.23;;;;;;;;;;5040813;28;20036;-87
2021/10/25 02:03:32;;;;;;;0.20;0.20;;;;;;;;;;5046493;28;20325;-87
2021/10/25 02:05:58;;;;;;;0.20;0.20;;;;;;;;;;5044733;28;20037;-87
2021/10/25 02:08:24;;;;;;;0.10;0.10;;;;;;;;;;5042927;28;20033;-84
2021/10/25 02:10:51;;;;;;;0.10;0.10;;;;;;;;;;5044676;28;20144;-85
2021/10/25 02:13:17;;;;;;;0.52;0.52;;;;;;;;;;5043312;28;20040;-86
2021/10/25 02:15:46;;;;;;;1.60;1.13;;;;;;;;;;5042688;28;20036;-86
2021/10/25 02:18:16;;;;;;;0.10;0.10;;;;;;;;;;5058078;28;20071;-85
2021/10/25 02:20:43;;;;;;;0.20;0.20;;;;;;;;;;5040682;28;20119;-85
2021/10/25 02:23:09;;;;;;;3.92;1.88;;;;;;;;;;5041309;28;20036;-85
2021/10/25 02:25:36;;;;;;;0.40;0.40;;;;;;;;;;5040256;28;20507;-87
2021/10/25 02:28:02;;;;;;;0.10;0.10;;;;;;;;;;5057563;28;20079;-86
2021/10/25 02:30:29;;;;;;;0.10;0.10;;;;;;;;;;5041581;28;20030;-84
2021/10/25 02:32:55;;;;;;;0.43;0.43;;;;;;;;;;5041436;28;20151;-86
2021/10/25 02:35:22;;;;;;;0.13;0.13;;;;;;;;;;5040715;28;20037;-86
2021/10/25 02:37:48;;;;;;;0.10;0.10;;;;;;;;;;5057539;28;20025;-85
2021/10/25 02:40:15;;;;;;;0.15;0.15;;;;;;;;;;5042243;28;20048;-86
2021/10/25 02:42:41;;;;;;;0.05;0.05;;;;;;;;;;5042759;28;20028;-86
2021/10/25 02:45:07;;;;;;;0.50;0.50;;;;;;;;;;5042628;28;20423;-85
2021/10/25 02:47:33;;;;;;;0.20;0.20;;;;;;;;;;5042007;28;20523;-85
2021/10/25 02:50:00;;;;;;;0.32;0.32;;;;;;;;;;5041637;28;20017;-84
2021/10/25 02:52:26;;;;;;;1.50;0.60;;;;;;;;;;5041771;28;20029;-85
2021/10/25 02:54:52;;;;;;;0.30;0.30;;;;;;;;;;5040135;28;20086;-85
2021/10/25 02:57:18;;;;;;;0.20;0.20;;;;;;;;;;5043438;28;20037;-85
2021/10/25 02:59:44;;;;;;;0.93;0.53;;;;;;;;;;5042780;28;20075;-87
2021/10/25 03:02:11;;;;;;;0.13;0.13;;;;;;;;;;5040554;28;20033;-87
2021/10/25 03:04:37;;;;;;;0.28;0.28;;;;;;;;;;5041669;28;20024;-84
2021/10/25 03:07:03;;;;;;;0.20;0.20;;;;;;;;;;5040617;28;20041;-84
2021/10/25 03:09:29;;;;;;;1.20;0.40;;;;;;;;;;5042080;28;20025;-85
2021/10/25 03:11:55;;;;;;;0.33;0.33;;;;;;;;;;5041751;28;20032;-86
2021/10/25 03:14:21;;;;;;;8.73;1.10;;;;;;;;;;5041253;28;20044;-86
2021/10/25 03:16:48;;;;;;;0.30;0.30;;;;;;;;;;5041953;28;20029;-86
2021/10/25 03:19:14;;;;;;;0.10;0.10;;;;;;;;;;5039310;28;20998;-86
2021/10/25 03:21:40;;;;;;;0.35;0.35;;;;;;;;;;5041600;28;20033;-86
2021/10/25 03:24:06;;;;;;;2.23;0.87;;;;;;;;;;5056756;28;20801;-86
2021/10/25 03:26:32;;;;;;;0.25;0.25;;;;;;;;;;5040806;28;20044;-87
2021/10/25 03:28:58;;;;;;;1.10;0.80;;;;;;;;;;5045455;28;20024;-86
2021/10/25 03:31:24;;;;;;;0.15;0.15;;;;;;;;;;5040921;28;20056;-86
2021/10/25 03:33:51;;;;;;;3.78;0.73;;;;;;;;;;5039898;28;20515;-87
2021/10/25 03:36:18;;;;;;;0.10;0.10;;;;;;;;;;5042387;28;20411;-85
2021/10/25 03:38:45;;;;;;;0.10;0.10;;;;;;;;;;5041050;28;20025;-85
2021/10/25 03:41:17;;;;;;;;;;;;;;;;;;5040777;28;20052;-88
2021/10/25 03:43:50;;;;;;;0.45;0.45;;;;;;;;;;5040659;28;20318;-87
2021/10/25 03:46:25;;;;;;;0.05;0.05;;;;;;;;;;5041924;28;20045;-88
2021/10/25 03:49:01;;;;;;;0.10;0.10;;;;;;;;;;5042352;28;20087;-90
2021/10/25 03:51:27;;;;;;;0.00;0.00;;;;;;;;;;5044047;28;20927;-89
2021/10/25 03:54:42;;;;;;;0.13;0.13;;;;;;;;;;5043912;28;20527;-88
2021/10/25 04:29:03;;;;;;;0.28;0.28;;;;;;;;;;5019649;28;20240;-89
2021/10/25 04:31:29;;;;;;;0.35;0.35;;;;;;;;;;5019082;28;20123;-85
2021/10/25 04:33:55;;;;;;;0.10;0.10;;;;;;;;;;5017141;28;20488;-86
2021/10/25 04:36:21;;;;;;;0.00;0.00;;;;;;;;;;5001566;28;20480;-86
2021/10/25 04:38:47;;;;;;;0.20;0.20;;;;;;;;;;5018658;28;20045;-86
2021/10/25 04:41:13;;;;;;;0.47;0.47;;;;;;;;;;5017745;28;20123;-87
2021/10/25 04:43:40;;;;;;;0.37;0.37;;;;;;;;;;5018564;28;20033;-88
2021/10/25 04:46:06;;;;;;;0.10;0.10;;;;;;;;;;5018315;28;20300;-86
2021/10/25 04:48:32;;;;;;;0.05;0.05;;;;;;;;;;5018509;28;20041;-87
2021/10/25 04:50:58;;;;;;;0.05;0.05;;;;;;;;;;5039291;28;20205;-88
2021/10/25 04:53:24;;;;;;;0.50;0.50;;;;;;;;;;5042081;28;20037;-90
2021/10/25 04:55:50;;;;;;;0.20;0.20;;;;;;;;;;5044147;28;20432;-92
2021/10/25 04:58:16;;;;;;;0.05;0.05;;;;;;;;;;5044542;28;20523;-88
2021/10/25 05:00:42;;;;;;;0.30;0.30;;;;;;;;;;5043557;28;20025;-87
2021/10/25 05:03:08;;;;;;;0.15;0.15;;;;;;;;;;5042956;28;20021;-88
2021/10/25 05:05:34;;;;;;;0.15;0.15;;;;;;;;;;5040640;28;20048;-89
2021/10/25 05:08:00;;;;;;;0.28;0.28;;;;;;;;;;5043590;28;20029;-88
2021/10/25 05:10:27;;;;;;;0.17;0.17;;;;;;;;;;5041875;28;20029;-90
2021/10/25 05:12:53;;;;;;;0.20;0.20;;;;;;;;;;5047178;28;20906;-89
2021/10/25 05:15:19;;;;;;;0.10;0.10;;;;;;;;;;5059653;28;20275;-85
2021/10/25 05:17:45;;;;;;;0.10;0.10;;;;;;;;;;5039835;28;20044;-83
2021/10/25 05:20:11;;;;;;;0.00;0.00;;;;;;;;;;5041032;28;20032;-80
2021/10/25 05:22:37;;;;;;;0.25;0.25;;;;;;;;;;5039775;28;20032;-84
2021/10/25 05:25:05;;;;;;;0.22;0.22;;;;;;;;;;5039303;28;20029;-83
2021/10/25 05:27:31;;;;;;;0.15;0.15;;;;;;;;;;5048005;28;20029;-83
2021/10/25 05:29:57;;;;;;;0.10;0.10;;;;;;;;;;5048775;28;20039;-83
2021/10/25 05:32:23;;;;;;;1.27;1.17;;;;;;;;;;5049652;28;20033;-82
2021/10/25 05:34:49;;;;;;;0.13;0.13;;;;;;;;;;5045869;28;20024;-83
2021/10/25 05:37:15;;;;;;;11.00;1.13;;;;;;;;;;5043958;28;20107;-84
2021/10/25 05:39:41;;;;;;;0.43;0.43;;;;;;;;;;5045095;28;20115;-84
2021/10/25 05:42:09;;;;;;;0.20;0.20;;;;;;;;;;5047321;28;20025;-86
2021/10/25 05:44:36;;;;;;;0.47;0.47;;;;;;;;;;5046403;28;20499;-86
2021/10/25 05:47:03;;;;;;;0.00;0.00;;;;;;;;;;5045135;28;20052;-85
2021/10/25 05:49:29;;;;;;;0.30;0.30;;;;;;;;;;5045455;28;20381;-86
2021/10/25 05:51:55;;;;;;;0.50;0.50;;;;;;;;;;5047589;28;20033;-86
2021/10/25 05:54:22;;;;;;;0.10;0.10;;;;;;;;;;5046595;28;20009;-86
2021/10/25 05:56:48;;;;;;;1.75;0.75;;;;;;;;;;5046587;28;20029;-85
2021/10/25 05:59:15;;;;;;;0.00;0.00;;;;;;;;;;5046312;28;20025;-85
2021/10/25 06:01:55;;;;;;;0.10;0.10;;;;;;;;;;5046251;28;20151;-85
2021/10/25 06:04:22;;;;;;;0.13;0.13;;;;;;;;;;5032150;28;20547;-87
2021/10/25 06:06:48;;;;;;;0.98;0.88;;;;;;;;;;5046051;28;20044;-83
2021/10/25 06:09:14;;;;;;;0.00;0.00;;;;;;;;;;5030036;28;20120;-83
2021/10/25 06:11:40;;;;;;;0.10;0.10;;;;;;;;;;5045898;28;20100;-84
2021/10/25 06:14:07;;;;;;;0.45;0.45;;;;;;;;;;5044675;28;20079;-82
2021/10/25 06:16:41;;;;;;;0.30;0.30;;;;;;;;;;5045182;28;20408;-82
2021/10/25 06:19:08;;;;;;;1.90;0.65;;;;;;;;;;5046253;28;20064;-81
2021/10/25 06:21:34;;;;;;;0.20;0.20;;;;;;;;;;5047661;28;20403;-81
2021/10/25 06:24:00;;;;;;;0.30;0.30;;;;;;;;;;5045776;28;20028;-80
2021/10/25 06:26:29;;;;;;;0.10;0.10;;;;;;;;;;5043167;28;20299;-81
2021/10/25 06:28:55;;;;;;;0.35;0.35;;;;;;;;;;5045357;28;20029;-81
2021/10/25 06:31:21;;;;;;;0.20;0.20;;;;;;;;;;5045307;28;20032;-81
2021/10/25 06:33:48;;;;;;;0.10;0.10;;;;;;;;;;5043758;28;20024;-81
2021/10/25 06:36:18;;;;;;;0.20;0.20;;;;;;;;;;5046382;28;20044;-81
2021/10/25 06:41:16;;;;;;;1.13;0.90;;;;;;;;;;5051487;28;20044;-81
2021/10/25 06:43:44;;;;;;;0.17;0.17;;;;;;;;;;5055591;28;20028;-81
2021/10/25 06:46:10;;;;;;;0.28;0.28;;;;;;;;;;5071442;28;20128;-81
2021/10/25 06:48:36;;;;;;;0.10;0.10;;;;;;;;;;5059431;28;20032;-81
2021/10/25 06:51:02;;;;;;;0.20;0.20;;;;;;;;;;5058569;28;20095;-81
2021/10/25 06:53:29;;;;;;;0.00;0.00;;;;;;;;;;5057653;28;20028;-82
2021/10/25 06:55:55;;;;;;;0.10;0.10;;;;;;;;;;5055384;28;20028;-82
2021/10/25 06:58:22;;;;;;;0.20;0.20;;;;;;;;;;5056054;28;20033;-82
2021/10/25 07:00:48;;;;;;;0.25;0.25;;;;;;;;;;5061702;28;20028;-82
2021/10/25 07:03:15;;;;;;;0.20;0.20;;;;;;;;;;5060522;28;20024;-82
2021/10/25 07:05:41;;;;;;;10.63;2.60;;;;;;;;;;5072949;28;20123;-82
2021/10/25 07:08:08;;;;;;;0.15;0.15;;;;;;;;;;5073284;28;20064;-82
2021/10/25 07:10:35;;;;;;;0.35;0.35;;;;;;;;;;5053662;28;20128;-82
2021/10/25 07:13:01;;;;;;;0.00;0.00;;;;;;;;;;5070783;28;20033;-82
2021/10/25 07:15:30;;;;;;;0.00;0.00;;;;;;;;;;5077650;28;20107;-82
2021/10/25 07:18:13;;;;;;;0.10;0.10;;;;;;;;;;5057976;28;20028;-82
2021/10/25 08:12:09;;;;;;;0.28;0.28;;;;;;;;;;5004525;28;20409;-80
2021/10/25 08:14:39;;;;;;;0.63;0.63;;;;;;;;;;4991285;28;20450;-82
2021/10/25 08:17:07;;;;;;;0.50;0.50;;;;;;;;;;4996418;28;20030;-82
2021/10/25 08:19:34;;;;;;;0.32;0.20;;;;;;;;;;5004514;28;20493;-83
2021/10/25 08:22:11;;;;;;;0.20;0.20;;;;;;;;;;5002611;28;20049;-81
2021/10/25 08:24:43;;;;;;;0.65;0.32;;;;;;;;;;5000661;28;20752;-80
2021/10/25 08:27:09;;;;;;;3.00;1.38;;;;;;;;;;4970625;28;20050;-81
2021/10/25 08:29:36;;;;;;;0.38;0.38;;;;;;;;;;4981349;28;20022;-80
2021/10/25 08:39:53;;;;;;;0.20;0.20;;;;;;;;;;5013573;28;20033;-84
2021/10/25 08:42:20;;;;;;;0.95;0.47;;;;;;;;;;5066973;28;20025;-87
2021/10/25 08:44:47;;;;;;;1.55;0.63;;;;;;;;;;5047167;28;20479;-87
2021/10/25 08:47:22;;;;;;;0.10;0.10;;;;;;;;;;5040505;28;20120;-85
2021/10/25 08:49:48;;;;;;;4.13;1.17;;;;;;;;;;5042157;28;20054;-85
2021/10/25 08:52:17;;;;;;;0.20;0.20;;;;;;;;;;5039186;28;20033;-85
2021/10/25 08:54:43;;;;;;;0.20;0.20;;;;;;;;;;5041848;28;20454;-85
2021/10/25 08:57:09;;;;;;;0.10;0.10;;;;;;;;;;5055803;28;20215;-85
2021/10/25 08:59:35;;;;;;;0.27;0.27;;;;;;;;;;5041624;28;20041;-85
2021/10/25 09:02:10;;;;;;;0.65;0.65;;;;;;;;;;5041860;28;20067;-85
2021/10/25 09:04:37;;;;;;;1.25;0.60;;;;;;;;;;5046001;28;20039;-85
2021/10/25 09:07:03;;;;;;;0.25;0.25;;;;;;;;;;5045959;28;20085;-85
2021/10/25 09:09:29;;;;;;;0.45;0.45;;;;;;;;;;5047784;28;20025;-86
2021/10/25 09:12:02;;;;;;;3.92;1.67;;;;;;;;;;5047049;28;20491;-85
2021/10/25 09:14:29;;;;;;;0.70;0.70;;;;;;;;;;5046329;28;20116;-85
2021/10/25 09:16:59;;;;;;;0.13;0.13;;;;;;;;;;5046081;28;20035;-85
2021/10/25 09:19:26;;;;;;;0.10;0.10;;;;;;;;;;5046187;28;20522;-82
2021/10/25 09:21:52;;;;;;;0.47;0.47;;;;;;;;;;5055798;28;20024;-82
2021/10/25 09:24:19;;;;;;;0.30;0.30;;;;;;;;;;5047240;28;20435;-82
2021/10/25 09:26:45;;;;;;;0.20;0.20;;;;;;;;;;5048866;28;20067;-80
2021/10/25 09:29:11;;;;;;;0.95;0.90;;;;;;;;;;5046015;28;20052;-83
2021/10/25 09:31:38;;;;;;;0.32;0.32;;;;;;;;;;5045179;28;20507;-82
2021/10/25 09:34:08;;;;;;;2.30;0.50;;;;;;;;;;5045608;28;20124;-82
2021/10/25 09:36:41;;;;;;;0.35;0.32;;;;;;;;;;5048364;28;20116;-84
2021/10/25 09:39:22;;;;;;;0.65;0.63;;;;;;;;;;5045563;28;20531;-82
2021/10/25 09:50:02;;;;;;;0.20;0.20;;;;;;;;;;5045679;28;20404;-82
2021/10/25 09:52:33;;;;;;;1.25;0.65;;;;;;;;;;5045656;28;20046;-82
2021/10/25 09:55:01;;;;;;;0.85;0.68;;;;;;;;;;5045435;28;20112;-82
2021/10/25 09:57:43;;;;;;;4.47;1.10;;;;;;;;;;5047052;28;20037;-83
2021/10/25 10:00:10;;;;;;;0.28;0.28;;;;;;;;;;5045095;28;20639;-83
2021/10/25 10:02:36;;;;;;;4.38;1.45;;;;;;;;;;5043675;28;20033;-82
2021/10/25 10:05:05;;;;;;;0.40;0.40;;;;;;;;;;5044749;28;20033;-82
2021/10/25 10:07:32;;;;;;;0.10;0.10;;;;;;;;;;5044754;28;20103;-82
2021/10/25 10:09:58;;;;;;;;;;;;;;;;;;5045577;28;20119;-82
2021/10/25 10:12:24;;;;;;;0.90;0.85;;;;;;;;;;5047010;28;20394;-82
2021/10/25 10:15:09;;;;;;;0.95;0.95;;;;;;;;;;5044368;28;20108;-82
2021/10/25 10:17:43;;;;;;;1.30;0.70;;;;;;;;;;5044969;28;20044;-82
2021/10/25 10:20:15;;;;;;;0.30;0.30;;;;;;;;;;5042955;28;20373;-83
2021/10/25 10:22:42;;;;;;;1.10;0.60;;;;;;;;;;5045219;28;20033;-82
2021/10/25 10:25:09;;;;;;;0.30;0.30;;;;;;;;;;5044984;28;20029;-82
2021/10/25 10:27:36;;;;;;;0.32;0.30;;;;;;;;;;5046529;28;20029;-82
2021/10/25 10:30:07;;;;;;;0.63;0.63;;;;;;;;;;5044853;28;20032;-82
2021/10/25 10:32:33;;;;;;;0.52;0.50;;;;;;;;;;5044770;28;20493;-82
2021/10/25 10:35:04;;;;;;;0.80;0.80;;;;;;;;;;5044764;28;20029;-82
2021/10/25 10:37:32;;;;;;;1.10;0.73;;;;;;;;;;5044277;28;20028;-82
2021/10/25 10:40:10;;;;;;;0.45;0.40;;;;;;;;;;5044762;28;20148;-82
2021/10/25 10:42:37;;;;;;;0.30;0.25;;;;;;;;;;5044857;28;20037;-83
2021/10/25 10:45:07;;;;;;;0.55;0.55;;;;;;;;;;5044411;28;20097;-83
2021/10/25 10:47:51;;;;;;;1.25;0.90;;;;;;;;;;5044404;28;20119;-83
2021/10/25 10:50:22;;;;;;;1.73;0.65;;;;;;;;;;5044380;28;20038;-83
2021/10/25 10:53:26;;;;;;;1.50;1.40;;;;;;;;;;5044898;28;20112;-83
2021/10/25 10:55:56;;;;;;;2.45;1.23;;;;;;;;;;5040648;28;20045;-82
2021/10/25 10:58:41;;;;;;;0.25;0.25;;;;;;;;;;5044085;28;20111;-82
2021/10/25 11:01:09;;;;;;;0.20;0.20;;;;;;;;;;5044397;28;20561;-82
2021/10/25 11:03:35;;;;;;;0.45;0.45;;;;;;;;;;5046117;28;20108;-83
2021/10/25 11:06:02;;;;;;;;;;;;;;;;;;5044580;28;20056;-83
2021/10/25 11:08:35;;;;;;;0.50;0.50;;;;;;;;;;5043553;28;19916;-83
2021/10/25 11:11:13;;;;;;;0.20;0.20;;;;;;;;;;5043350;28;20056;-83
2021/10/25 11:13:43;;;;;;;0.57;0.57;;;;;;;;;;5044104;28;20056;-82
2021/10/25 11:16:12;;;;;;;0.40;0.40;;;;;;;;;;5044022;28;20174;-83
2021/10/25 11:18:40;;;;;;;0.32;0.32;;;;;;;;;;5040005;28;20527;-82
2021/10/25 11:21:10;;;;;;;0.90;0.73;;;;;;;;;;5043670;28;20173;-83
2021/10/25 11:23:38;;;;;;;0.30;0.30;;;;;;;;;;5043922;28;20037;-83
2021/10/25 11:26:24;;;;;;;0.68;0.68;;;;;;;;;;5041980;28;20036;-83
2021/10/25 11:28:50;;;;;;;;;;;;;;;;;;5042143;28;20063;-83
2021/10/25 11:31:17;;;;;;;1.00;0.40;;;;;;;;;;5044592;28;20367;-82
2021/10/25 11:33:47;;;;;;;0.60;0.60;;;;;;;;;;5060198;28;20067;-82
2021/10/25 11:36:14;;;;;;;0.68;0.68;;;;;;;;;;5042722;28;20407;-83
2021/10/25 11:38:44;;;;;;;0.10;0.10;;;;;;;;;;5043078;28;20415;-83
2021/10/25 11:41:10;;;;;;;0.32;0.32;;;;;;;;;;5043826;28;20124;-83
2021/10/25 11:43:36;;;;;;;0.10;0.10;;;;;;;;;;5043752;28;20029;-83
2021/10/25 11:46:13;;;;;;;1.25;0.77;;;;;;;;;;5043359;28;20056;-83
2021/10/25 11:48:39;;;;;;;1.52;0.52;;;;;;;;;;5040822;28;20055;-83
2021/10/25 11:51:07;;;;;;;1.10;1.00;;;;;;;;;;5043445;28;20130;-83
2021/10/25 11:53:33;;;;;;;1.00;0.55;;;;;;;;;;5043187;28;20362;-83
2021/10/25 11:55:59;;;;;;;0.30;0.30;;;;;;;;;;5042244;28;20099;-82
2021/10/25 11:58:27;;;;;;;0.10;0.10;;;;;;;;;;5042825;28;20361;-83
2021/10/25 12:00:55;;;;;;;0.30;0.30;;;;;;;;;;5043877;28;20048;-83
2021/10/25 12:03:23;;;;;;;0.88;0.63;;;;;;;;;;5044560;28;20136;-83
2021/10/25 12:05:49;;;;;;;0.00;0.00;;;;;;;;;;5042747;28;20051;-82
2021/10/25 12:08:17;;;;;;;4.28;0.52;;;;;;;;;;5042426;28;20032;-83
2021/10/25 12:10:44;;;;;;;0.20;0.20;;;;;;;;;;5042838;28;20789;-83
2021/10/25 12:13:11;;;;;;;1.50;1.25;;;;;;;;;;5026787;28;20068;-83
2021/10/25 12:15:37;;;;;;;;;;;;;;;;;;5044846;28;20124;-83
2021/10/25 12:18:05;;;;;;;2.83;0.85;;;;;;;;;;5042172;28;19992;-83
2021/10/25 12:20:32;;;;;;;0.10;0.10;;;;;;;;;;5057526;28;20051;-83
2021/10/25 12:23:01;;;;;;;1.10;0.52;;;;;;;;;;5042711;28;20055;-83
2021/10/25 12:25:28;;;;;;;0.40;0.40;;;;;;;;;;5042218;28;20115;-83
2021/10/25 12:27:58;;;;;;;3.30;0.95;;;;;;;;;;5043228;28;20037;-83
2021/10/25 12:30:24;;;;;;;0.63;0.55;;;;;;;;;;5042419;28;20025;-83
2021/10/25 12:32:59;;;;;;;0.10;0.10;;;;;;;;;;5042607;28;20104;-83
2021/10/25 12:35:45;;;;;;;0.20;0.20;;;;;;;;;;5042417;28;20025;-83
2021/10/25 12:38:15;;;;;;;0.10;0.10;;;;;;;;;;5040938;28;20082;-83
2021/10/25 12:40:52;;;;;;;1.83;1.42;;;;;;;;;;5042650;28;20407;-83
2021/10/25 12:43:19;;;;;;;0.50;0.50;;;;;;;;;;5042530;28;20029;-83
2021/10/25 12:45:59;;;;;;;0.30;0.30;;;;;;;;;;5043292;28;20057;-83
2021/10/25 12:48:26;;;;;;;1.00;0.73;;;;;;;;;;5042351;28;20049;-83
2021/10/25 12:51:00;;;;;;;0.75;0.75;;;;;;;;;;5042153;28;20028;-83
2021/10/25 12:53:29;;;;;;;0.25;0.25;;;;;;;;;;5041724;28;20155;-83
2021/10/25 12:55:56;;;;;;;0.13;0.13;;;;;;;;;;5040159;28;20105;-83
2021/10/25 12:58:23;;;;;;;0.30;0.30;;;;;;;;;;5042395;28;20068;-83
2021/10/25 13:00:49;;;;;;;7.68;0.90;;;;;;;;;;5043502;28;20029;-83
2021/10/25 13:03:15;;;;;;;1.43;0.73;;;;;;;;;;5042781;28;20039;-83
2021/10/25 13:05:48;;;;;;;1.25;0.85;;;;;;;;;;5042051;28;20291;-83
2021/10/25 13:08:15;;;;;;;2.17;1.60;;;;;;;;;;5042200;28;20191;-83
2021/10/25 13:10:42;;;;;;;0.50;0.50;;;;;;;;;;5042208;28;20511;-83
2021/10/25 13:13:08;;;;;;;;;;;;;;;;;;5041097;28;20148;-83
2021/10/25 13:15:34;;;;;;;1.45;0.55;;;;;;;;;;5043702;28;19999;-83
2021/10/25 13:18:01;;;;;;;0.90;0.88;;;;;;;;;;5041784;28;20456;-83
2021/10/25 13:20:27;;;;;;;;;;;;;;;;;;5042344;28;20059;-83
2021/10/25 13:22:55;;;;;;;0.85;0.65;;;;;;;;;;5042007;28;20332;-83
2021/10/25 13:25:22;;;;;;;0.13;0.13;;;;;;;;;;5041235;28;20119;-83
2021/10/25 13:27:49;;;;;;;;;;;;;;;;;;5043561;28;20550;-83
2021/10/25 13:30:16;;;;;;;0.15;0.15;;;;;;;;;;5042013;28;19909;-83
2021/10/25 13:32:42;;;;;;;0.20;0.20;;;;;;;;;;5041417;28;20032;-82
2021/10/25 13:35:08;;;;;;;0.10;0.10;;;;;;;;;;5056373;28;20032;-83
2021/10/25 13:37:35;;;;;;;0.57;0.52;;;;;;;;;;5040287;28;20037;-83
2021/10/25 13:40:01;;;;;;;0.15;0.15;;;;;;;;;;5041835;28;20682;-83
2021/10/25 13:42:27;;;;;;;1.40;0.50;;;;;;;;;;5043395;28;20024;-83
2021/10/25 13:44:54;;;;;;;0.50;0.30;;;;;;;;;;5041545;28;20060;-83
2021/10/25 13:47:20;;;;;;;0.20;0.20;;;;;;;;;;5041686;28;20063;-83
2021/10/25 13:49:48;;;;;;;0.10;0.10;;;;;;;;;;5043875;28;20024;-83
2021/10/25 13:52:14;;;;;;;0.75;0.57;;;;;;;;;;5045649;28;20456;-84
2021/10/25 13:54:40;;;;;;;;;;;;;;;;;;5058371;28;20021;-83
2021/10/25 13:57:08;;;;;;;0.40;0.40;;;;;;;;;;5045445;28;19916;-83
2021/10/25 13:59:35;;;;;;;0.40;0.40;;;;;;;;;;5045041;28;20091;-83
2021/10/25 14:02:02;;;;;;;0.13;0.13;;;;;;;;;;5045551;28;20047;-83
2021/10/25 14:04:28;;;;;;;0.20;0.20;;;;;;;;;;5045001;28;20463;-83
2021/10/25 14:06:55;;;;;;;0.13;0.13;;;;;;;;;;5045832;28;20040;-83
2021/10/25 14:09:21;;;;;;;0.10;0.10;;;;;;;;;;5046362;28;20050;-83
2021/10/25 14:11:51;;;;;;;1.98;0.45;;;;;;;;;;5044692;28;20047;-83
2021/10/25 14:14:21;;;;;;;0.88;0.28;;;;;;;;;;5044901;28;20447;-83
2021/10/25 14:16:57;;;;;;;0.38;0.30;;;;;;;;;;5045084;28;20102;-83
2021/10/25 14:19:24;;;;;;;0.25;0.25;;;;;;;;;;5044315;28;20144;-83
2021/10/25 14:21:51;;;;;;;0.10;0.10;;;;;;;;;;5045624;28;20090;-83
2021/10/25 14:24:18;;;;;;;0.10;0.10;;;;;;;;;;5045359;28;20086;-83
2021/10/25 14:26:44;;;;;;;0.80;0.50;;;;;;;;;;5059429;28;20033;-83
2021/10/25 14:29:10;;;;;;;0.28;0.28;;;;;;;;;;5044316;28;20025;-83
2021/10/25 14:31:38;;;;;;;0.10;0.10;;;;;;;;;;5044889;28;20033;-83
2021/10/25 14:34:05;;;;;;;0.40;0.22;;;;;;;;;;5044707;28;20087;-83
2021/10/25 14:36:32;;;;;;;0.65;0.50;;;;;;;;;;5046294;28;20055;-83
2021/10/25 14:44:26;;;;;;;;;;;;;;;;;;5022960;28;20037;-83
2021/10/25 14:47:11;;;;;;;0.82;0.68;;;;;;;;;;5022248;28;20004;-83
2021/10/25 14:57:21;;;;;;;0.65;0.28;;;;;;;;;;5022949;28;20124;-82
2021/10/25 14:59:47;;;;;;;0.20;0.20;;;;;;;;;;5022091;28;20435;-83
2021/10/25 15:02:14;;;;;;;0.52;0.52;;;;;;;;;;5022278;28;20500;-83
2021/10/25 15:04:40;;;;;;;5.13;0.35;;;;;;;;;;5022288;28;20030;-83
2021/10/25 15:07:08;;;;;;;0.10;0.10;;;;;;;;;;5022023;28;20049;-83
2021/10/25 15:09:35;;;;;;;0.17;0.17;;;;;;;;;;5020754;28;20076;-83
2021/10/25 15:12:01;;;;;;;0.00;0.00;;;;;;;;;;5020984;28;20522;-82
2021/10/25 15:14:27;;;;;;;0.38;0.20;;;;;;;;;;5024425;28;20110;-83
2021/10/25 15:16:53;;;;;;;0.43;0.43;;;;;;;;;;5021270;28;20090;-84
2021/10/25 15:19:19;;;;;;;0.98;0.22;;;;;;;;;;5022709;28;20280;-83
2021/10/25 15:21:45;;;;;;;0.25;0.25;;;;;;;;;;5049395;28;20070;-83
2021/10/25 15:24:12;;;;;;;0.38;0.38;;;;;;;;;;5057541;28;20566;-83
2021/10/25 15:26:43;;;;;;;0.73;0.50;;;;;;;;;;5052042;28;20119;-83
2021/10/25 15:29:09;;;;;;;0.28;0.28;;;;;;;;;;5056981;28;20106;-83
2021/10/25 15:31:35;;;;;;;0.87;0.67;;;;;;;;;;5058034;28;20074;-83
2021/10/25 15:34:01;;;;;;;0.40;0.40;;;;;;;;;;5058689;28;20023;-83
2021/10/25 15:36:27;;;;;;;3.42;0.73;;;;;;;;;;5060204;28;20320;-83
2021/10/25 15:38:55;;;;;;;0.30;0.30;;;;;;;;;;5054587;28;20029;-83
2021/10/25 15:41:22;;;;;;;0.10;0.10;;;;;;;;;;5053859;28;20827;-83
2021/10/25 15:43:48;;;;;;;0.40;0.40;;;;;;;;;;5054721;28;20037;-84
2021/10/25 15:46:14;;;;;;;0.15;0.15;;;;;;;;;;5069489;28;20128;-82
2021/10/25 15:48:41;;;;;;;0.30;0.30;;;;;;;;;;5062235;28;20035;-83
2021/10/25 15:51:07;;;;;;;0.28;0.28;;;;;;;;;;5051950;28;20101;-82
2021/10/25 15:53:35;;;;;;;1.67;0.30;;;;;;;;;;5057012;28;20036;-84
2021/10/25 15:56:01;;;;;;;0.63;0.63;;;;;;;;;;5057195;28;20101;-83
2021/10/25 15:58:27;;;;;;;0.50;0.50;;;;;;;;;;5072324;28;20052;-83
2021/10/25 16:00:53;;;;;;;0.67;0.50;;;;;;;;;;5058629;28;20051;-83
2021/10/25 16:03:19;;;;;;;0.63;0.40;;;;;;;;;;5059335;28;20324;-83
2021/10/25 16:05:46;;;;;;;0.17;0.17;;;;;;;;;;5053471;28;20291;-83
2021/10/25 16:08:12;;;;;;;;;;;;;;;;;;5055250;28;20028;-83
2021/10/25 16:10:39;;;;;;;0.88;0.65;;;;;;;;;;5054170;28;19912;-83
2021/10/25 16:13:05;;;;;;;0.30;0.30;;;;;;;;;;5058056;28;20037;-83
2021/10/25 16:15:31;;;;;;;0.60;0.50;;;;;;;;;;5052789;28;20035;-83
2021/10/25 16:17:57;;;;;;;0.10;0.10;;;;;;;;;;5056535;28;20035;-83
2021/10/25 16:20:25;;;;;;;0.32;0.32;;;;;;;;;;5057884;28;20297;-83
2021/10/25 16:22:51;;;;;;;0.95;0.40;;;;;;;;;;5055619;28;20048;-83
2021/10/25 16:25:17;;;;;;;1.05;0.80;;;;;;;;;;5054155;28;20028;-83
2021/10/25 16:27:44;;;;;;;0.65;0.65;;;;;;;;;;5062235;28;20078;-83
2021/10/25 16:30:15;;;;;;;0.20;0.20;;;;;;;;;;5053848;28;20415;-84
2021/10/25 16:32:41;;;;;;;0.10;0.10;;;;;;;;;;5047964;28;20155;-88
2021/10/25 16:35:08;;;;;;;0.20;0.20;;;;;;;;;;5042621;28;20033;-84
2021/10/25 16:37:34;;;;;;;3.53;0.80;;;;;;;;;;5042488;28;20040;-91
2021/10/25 16:40:00;;;;;;;0.43;0.30;;;;;;;;;;5041686;28;20044;-88
2021/10/25 16:42:26;;;;;;;0.10;0.10;;;;;;;;;;5057974;28;20025;-88
2021/10/25 16:44:52;;;;;;;0.93;0.47;;;;;;;;;;5058181;28;20283;-83